Time;durP1;ratioP1;P1;durP2;ratioP2;P2;SDS_P1;SDS_P2;PMS_P1;PMS_P2;Temp;Humidity;BMP_temperature;BMP_pressure;BME280_temperature;BME280_humidity;BME280_pressure;Samples;Min_cycle;Max_cycle;Signal;HPM_P1;HPM_P2
2021/06/23 00:00:28;;;;;;;0.10;0.10;;;;;;;;;;4896162;29;20041;-85
2021/06/23 00:02:54;;;;;;;0.10;0.10;;;;;;;;;;4880609;29;20491;-84
2021/06/23 00:05:20;;;;;;;0.10;0.10;;;;;;;;;;4895757;29;20040;-84
2021/06/23 00:07:46;;;;;;;0.10;0.10;;;;;;;;;;4896849;29;20091;-84
2021/06/23 00:10:13;;;;;;;0.10;0.10;;;;;;;;;;4895816;29;20044;-84
2021/06/23 00:12:40;;;;;;;0.10;0.10;;;;;;;;;;4880116;29;20096;-84
2021/06/23 00:15:06;;;;;;;0.10;0.10;;;;;;;;;;4895776;29;20104;-84
2021/06/23 00:17:32;;;;;;;0.10;0.10;;;;;;;;;;4895465;29;20088;-83
2021/06/23 00:19:58;;;;;;;0.10;0.10;;;;;;;;;;4896913;29;20100;-84
2021/06/23 00:22:25;;;;;;;0.10;0.10;;;;;;;;;;4880546;29;20184;-84
2021/06/23 00:24:51;;;;;;;0.20;0.20;;;;;;;;;;4895663;29;20048;-84
2021/06/23 00:27:17;;;;;;;0.10;0.10;;;;;;;;;;4895673;29;20235;-84
2021/06/23 00:29:43;;;;;;;0.10;0.10;;;;;;;;;;4895714;29;20376;-84
2021/06/23 00:32:12;;;;;;;0.10;0.10;;;;;;;;;;4880135;29;20041;-83
2021/06/23 00:34:38;;;;;;;0.15;0.15;;;;;;;;;;4895443;29;20045;-84
2021/06/23 00:37:05;;;;;;;0.10;0.10;;;;;;;;;;4896639;29;20124;-84
2021/06/23 00:39:31;;;;;;;0.10;0.10;;;;;;;;;;4895646;29;20037;-84
2021/06/23 00:41:57;;;;;;;0.10;0.10;;;;;;;;;;4895678;29;20056;-85
2021/06/23 00:44:23;;;;;;;0.10;0.10;;;;;;;;;;4880010;29;20064;-85
2021/06/23 00:46:49;;;;;;;0.10;0.10;;;;;;;;;;4896583;29;20454;-84
2021/06/23 00:49:15;;;;;;;0.10;0.10;;;;;;;;;;4895467;29;20041;-84
2021/06/23 00:51:41;;;;;;;0.10;0.10;;;;;;;;;;4895515;29;20041;-85
2021/06/23 00:54:11;;;;;;;0.43;0.20;;;;;;;;;;4879854;29;20052;-85
2021/06/23 00:56:38;;;;;;;0.10;0.10;;;;;;;;;;4864602;29;20049;-85
2021/06/23 00:59:05;;;;;;;0.10;0.10;;;;;;;;;;4895430;29;20406;-86
2021/06/23 01:01:31;;;;;;;0.10;0.10;;;;;;;;;;4895442;29;20049;-85
2021/06/23 01:03:58;;;;;;;0.10;0.10;;;;;;;;;;4880135;29;20074;-85
2021/06/23 01:06:24;;;;;;;0.10;0.10;;;;;;;;;;4882266;29;20044;-85
2021/06/23 01:08:50;;;;;;;0.20;0.20;;;;;;;;;;4883243;29;20041;-85
2021/06/23 01:11:16;;;;;;;0.10;0.10;;;;;;;;;;4883256;29;20128;-85
2021/06/23 01:13:59;;;;;;;0.10;0.10;;;;;;;;;;4883099;29;20044;-85
2021/06/23 01:16:26;;;;;;;0.10;0.10;;;;;;;;;;4898628;29;20049;-85
2021/06/23 01:18:52;;;;;;;0.10;0.10;;;;;;;;;;4883224;29;20499;-85
2021/06/23 01:21:19;;;;;;;0.10;0.10;;;;;;;;;;4899794;29;20465;-84
2021/06/23 01:23:45;;;;;;;0.10;0.10;;;;;;;;;;4898570;29;20045;-85
2021/06/23 01:26:11;;;;;;;0.10;0.10;;;;;;;;;;4899709;29;20116;-84
2021/06/23 01:28:37;;;;;;;0.10;0.10;;;;;;;;;;4898334;29;20140;-84
2021/06/23 01:31:03;;;;;;;0.10;0.10;;;;;;;;;;4898820;29;20053;-85
2021/06/23 01:33:29;;;;;;;0.10;0.10;;;;;;;;;;4899900;29;20041;-85
2021/06/23 01:35:55;;;;;;;0.10;0.10;;;;;;;;;;4882812;29;20051;-84
2021/06/23 01:38:23;;;;;;;0.10;0.10;;;;;;;;;;4898235;29;20059;-84
2021/06/23 01:40:49;;;;;;;0.10;0.10;;;;;;;;;;4883015;29;20032;-84
2021/06/23 01:43:16;;;;;;;0.20;0.20;;;;;;;;;;4898098;29;20037;-84
2021/06/23 01:45:45;;;;;;;0.10;0.10;;;;;;;;;;4882668;29;20068;-83
2021/06/23 01:48:13;;;;;;;0.10;0.10;;;;;;;;;;4899166;29;20123;-84
2021/06/23 01:50:39;;;;;;;0.10;0.10;;;;;;;;;;4898143;29;20128;-84
2021/06/23 01:53:05;;;;;;;0.10;0.10;;;;;;;;;;4899216;29;20040;-84
2021/06/23 01:55:31;;;;;;;0.10;0.10;;;;;;;;;;4899188;29;20074;-84
2021/06/23 01:58:00;;;;;;;0.20;0.20;;;;;;;;;;4882403;29;20141;-84
2021/06/23 02:00:27;;;;;;;0.10;0.10;;;;;;;;;;4899056;29;20545;-84
2021/06/23 02:02:53;;;;;;;0.10;0.10;;;;;;;;;;4897832;29;20119;-84
2021/06/23 02:05:25;;;;;;;0.10;0.10;;;;;;;;;;4897791;29;20073;-84
2021/06/23 02:07:54;;;;;;;0.10;0.10;;;;;;;;;;4897611;29;20052;-84
2021/06/23 02:10:41;;;;;;;0.10;0.10;;;;;;;;;;4897525;29;20491;-85
2021/06/23 02:13:27;;;;;;;0.17;0.17;;;;;;;;;;4882179;29;20049;-84
2021/06/23 02:15:58;;;;;;;0.10;0.10;;;;;;;;;;4879713;29;20064;-85
2021/06/23 02:18:27;;;;;;;0.10;0.10;;;;;;;;;;4896393;29;20104;-85
2021/06/23 02:20:54;;;;;;;0.10;0.10;;;;;;;;;;4897452;29;20486;-85
2021/06/23 02:23:20;;;;;;;0.10;0.10;;;;;;;;;;4881871;29;20051;-84
2021/06/23 02:25:46;;;;;;;0.10;0.10;;;;;;;;;;4882034;29;20551;-84
2021/06/23 02:28:12;;;;;;;0.10;0.10;;;;;;;;;;4897328;29;20048;-84
2021/06/23 02:30:38;;;;;;;0.10;0.10;;;;;;;;;;4898436;29;20036;-84
2021/06/23 02:33:04;;;;;;;0.10;0.10;;;;;;;;;;4897459;29;20068;-85
2021/06/23 02:35:31;;;;;;;0.10;0.10;;;;;;;;;;4881608;29;20041;-84
2021/06/23 02:37:58;;;;;;;0.10;0.10;;;;;;;;;;4897059;29;20099;-85
2021/06/23 02:40:24;;;;;;;0.10;0.10;;;;;;;;;;4881766;29;20094;-85
2021/06/23 02:42:50;;;;;;;0.10;0.10;;;;;;;;;;4881596;29;20096;-84
2021/06/23 02:45:16;;;;;;;0.10;0.10;;;;;;;;;;4896981;29;20507;-85
2021/06/23 02:47:42;;;;;;;0.10;0.10;;;;;;;;;;4881378;29;20491;-85
2021/06/23 02:50:09;;;;;;;0.10;0.10;;;;;;;;;;4896902;29;20047;-84
2021/06/23 02:52:35;;;;;;;0.10;0.10;;;;;;;;;;4897052;29;20477;-84
2021/06/23 02:55:05;;;;;;;0.10;0.10;;;;;;;;;;4896784;29;20044;-85
2021/06/23 02:57:31;;;;;;;0.10;0.10;;;;;;;;;;4896773;29;20052;-84
2021/06/23 03:00:01;;;;;;;0.10;0.10;;;;;;;;;;4881379;29;20484;-84
2021/06/23 03:02:28;;;;;;;0.10;0.10;;;;;;;;;;4896620;29;20108;-84
2021/06/23 03:04:54;;;;;;;0.10;0.10;;;;;;;;;;4897899;29;20049;-85
2021/06/23 03:07:20;;;;;;;0.10;0.10;;;;;;;;;;4896586;29;20040;-85
2021/06/23 03:09:46;;;;;;;0.10;0.10;;;;;;;;;;4896511;29;20072;-84
2021/06/23 03:12:13;;;;;;;0.20;0.20;;;;;;;;;;4896320;29;20041;-85
2021/06/23 03:14:41;;;;;;;0.10;0.10;;;;;;;;;;4895953;29;20135;-85
2021/06/23 03:17:07;;;;;;;0.10;0.10;;;;;;;;;;4895193;29;20045;-84
2021/06/23 03:19:33;;;;;;;0.10;0.10;;;;;;;;;;4895830;29;20116;-85
2021/06/23 03:22:03;;;;;;;0.20;0.20;;;;;;;;;;4880326;29;20041;-85
2021/06/23 03:24:29;;;;;;;0.10;0.10;;;;;;;;;;4895716;29;20104;-85
2021/06/23 03:26:55;;;;;;;0.10;0.10;;;;;;;;;;4895550;29;20048;-85
2021/06/23 03:29:27;;;;;;;0.10;0.10;;;;;;;;;;4895444;29;20566;-85
2021/06/23 03:31:53;;;;;;;0.30;0.30;;;;;;;;;;4895646;29;20079;-85
2021/06/23 03:34:19;;;;;;;0.10;0.10;;;;;;;;;;4895543;29;20068;-85
2021/06/23 03:36:45;;;;;;;0.20;0.20;;;;;;;;;;4895541;29;20040;-85
2021/06/23 03:39:14;;;;;;;0.10;0.10;;;;;;;;;;4895824;29;20037;-85
2021/06/23 03:41:42;;;;;;;0.10;0.10;;;;;;;;;;4896126;29;20032;-85
2021/06/23 03:44:08;;;;;;;0.10;0.10;;;;;;;;;;4880644;29;20044;-86
2021/06/23 03:46:34;;;;;;;0.10;0.10;;;;;;;;;;4895897;29;20051;-86
2021/06/23 03:49:01;;;;;;;0.10;0.10;;;;;;;;;;4895481;29;20096;-85
2021/06/23 03:51:30;;;;;;;0.10;0.10;;;;;;;;;;4880410;29;20053;-86
2021/06/23 03:53:56;;;;;;;0.20;0.20;;;;;;;;;;4896597;29;20515;-85
2021/06/23 03:56:22;;;;;;;0.20;0.20;;;;;;;;;;4895283;29;20043;-85
2021/06/23 03:58:48;;;;;;;0.10;0.10;;;;;;;;;;4895270;29;20092;-85
2021/06/23 04:01:16;;;;;;;0.10;0.10;;;;;;;;;;4895536;29;20547;-85
2021/06/23 04:03:42;;;;;;;0.10;0.10;;;;;;;;;;4895496;29;20072;-86
2021/06/23 04:06:08;;;;;;;0.20;0.20;;;;;;;;;;4895624;29;20075;-86
2021/06/23 04:08:36;;;;;;;0.10;0.10;;;;;;;;;;4879957;29;20059;-86
2021/06/23 04:11:02;;;;;;;0.10;0.10;;;;;;;;;;4895309;29;20044;-86
2021/06/23 04:13:28;;;;;;;0.10;0.10;;;;;;;;;;4895064;29;20045;-86
2021/06/23 04:15:56;;;;;;;0.10;0.10;;;;;;;;;;4880139;29;20045;-85
2021/06/23 04:18:22;;;;;;;0.10;0.10;;;;;;;;;;4879430;29;20107;-86
2021/06/23 04:20:54;;;;;;;0.20;0.20;;;;;;;;;;4896453;29;20486;-85
2021/06/23 04:23:20;;;;;;;0.10;0.10;;;;;;;;;;4895189;29;20041;-85
2021/06/23 04:25:47;;;;;;;0.10;0.10;;;;;;;;;;4894997;29;20041;-85
2021/06/23 04:28:15;;;;;;;0.20;0.20;;;;;;;;;;4896372;29;20119;-85
2021/06/23 04:30:41;;;;;;;0.10;0.10;;;;;;;;;;4895239;29;20462;-84
2021/06/23 04:33:07;;;;;;;0.10;0.10;;;;;;;;;;4895133;29;20119;-85
2021/06/23 04:35:42;;;;;;;0.10;0.10;;;;;;;;;;4895216;29;20044;-85
2021/06/23 04:38:08;;;;;;;0.10;0.10;;;;;;;;;;4894844;29;20044;-85
2021/06/23 04:40:34;;;;;;;0.10;0.10;;;;;;;;;;4880708;29;20044;-85
2021/06/23 04:43:00;;;;;;;0.20;0.20;;;;;;;;;;4883279;29;20040;-85
2021/06/23 04:45:26;;;;;;;0.10;0.10;;;;;;;;;;4898801;29;20420;-84
2021/06/23 04:47:52;;;;;;;0.10;0.10;;;;;;;;;;4882846;29;20048;-84
2021/06/23 04:50:18;;;;;;;0.10;0.10;;;;;;;;;;4898528;29;20037;-84
2021/06/23 04:52:44;;;;;;;0.10;0.10;;;;;;;;;;4898572;29;20037;-84
2021/06/23 04:55:16;;;;;;;0.10;0.10;;;;;;;;;;4898402;29;20040;-85
2021/06/23 04:57:42;;;;;;;0.10;0.10;;;;;;;;;;4898672;29;20069;-85
2021/06/23 05:00:08;;;;;;;0.10;0.10;;;;;;;;;;4899677;29;20047;-85
2021/06/23 05:02:36;;;;;;;0.10;0.10;;;;;;;;;;4898289;29;20044;-85
2021/06/23 05:05:02;;;;;;;0.10;0.10;;;;;;;;;;4882647;29;20059;-84
2021/06/23 05:07:28;;;;;;;0.20;0.20;;;;;;;;;;4898102;29;20470;-84
2021/06/23 05:09:54;;;;;;;0.10;0.10;;;;;;;;;;4898153;29;20046;-84
2021/06/23 05:12:22;;;;;;;0.43;0.43;;;;;;;;;;4898235;29;20051;-84
2021/06/23 05:14:50;;;;;;;0.10;0.10;;;;;;;;;;4898027;29;20403;-84
2021/06/23 05:17:16;;;;;;;0.10;0.10;;;;;;;;;;4897972;29;20032;-84
2021/06/23 05:19:42;;;;;;;0.10;0.10;;;;;;;;;;4882632;29;20052;-84
2021/06/23 05:22:11;;;;;;;0.10;0.10;;;;;;;;;;4882319;29;20100;-84
2021/06/23 05:24:38;;;;;;;0.10;0.10;;;;;;;;;;4882253;29;20036;-84
2021/06/23 05:27:04;;;;;;;0.10;0.10;;;;;;;;;;4897622;29;20043;-85
2021/06/23 05:29:30;;;;;;;0.10;0.10;;;;;;;;;;4882327;29;20040;-85
2021/06/23 05:31:56;;;;;;;0.28;0.28;;;;;;;;;;4882233;29;20177;-85
2021/06/23 05:34:22;;;;;;;0.10;0.10;;;;;;;;;;4897887;29;20124;-85
2021/06/23 05:36:48;;;;;;;0.15;0.15;;;;;;;;;;4897620;29;20052;-84
2021/06/23 05:39:15;;;;;;;0.17;0.17;;;;;;;;;;4897712;29;20146;-85
2021/06/23 05:41:41;;;;;;;0.10;0.10;;;;;;;;;;4897616;29;20168;-84
2021/06/23 05:44:06;;;;;;;0.10;0.10;;;;;;;;;;4897588;29;20132;-84
2021/06/23 05:46:33;;;;;;;0.10;0.10;;;;;;;;;;4897455;29;20040;-85
2021/06/23 05:48:59;;;;;;;0.10;0.10;;;;;;;;;;4882061;29;20521;-85
2021/06/23 05:51:25;;;;;;;0.20;0.20;;;;;;;;;;4898566;29;20044;-86
2021/06/23 05:53:51;;;;;;;0.10;0.10;;;;;;;;;;4897412;29;20554;-87
2021/06/23 05:56:17;;;;;;;0.10;0.10;;;;;;;;;;4882359;29;20067;-87
2021/06/23 05:58:43;;;;;;;0.20;0.20;;;;;;;;;;4897589;29;20045;-86
2021/06/23 06:01:09;;;;;;;0.10;0.10;;;;;;;;;;4897544;29;20095;-85
2021/06/23 06:03:38;;;;;;;0.20;0.20;;;;;;;;;;4897558;29;20509;-88
2021/06/23 06:06:04;;;;;;;0.10;0.10;;;;;;;;;;4866951;29;20051;-86
2021/06/23 06:08:30;;;;;;;0.20;0.20;;;;;;;;;;4897247;29;20063;-85
2021/06/23 06:10:56;;;;;;;0.10;0.10;;;;;;;;;;4897224;29;20486;-85
2021/06/23 06:13:22;;;;;;;0.10;0.10;;;;;;;;;;4882698;29;20048;-87
2021/06/23 06:15:48;;;;;;;0.10;0.10;;;;;;;;;;4882230;29;20036;-85
2021/06/23 06:18:14;;;;;;;0.10;0.10;;;;;;;;;;4896707;29;20127;-86
2021/06/23 06:20:40;;;;;;;0.10;0.10;;;;;;;;;;4881729;29;20135;-86
2021/06/23 06:23:06;;;;;;;0.10;0.10;;;;;;;;;;4897038;29;20486;-87
2021/06/23 06:25:32;;;;;;;0.68;0.30;;;;;;;;;;4897053;29;20045;-90
2021/06/23 06:27:58;;;;;;;0.10;0.10;;;;;;;;;;4881885;29;20044;-88
2021/06/23 06:30:25;;;;;;;0.10;0.10;;;;;;;;;;4897204;29;20084;-90
2021/06/23 06:32:52;;;;;;;0.10;0.10;;;;;;;;;;4897874;29;20040;-85
2021/06/23 06:35:18;;;;;;;0.10;0.10;;;;;;;;;;4896481;29;20044;-84
2021/06/23 06:37:44;;;;;;;0.10;0.10;;;;;;;;;;4896528;29;20053;-85
2021/06/23 06:40:10;;;;;;;0.10;0.10;;;;;;;;;;4880964;29;20422;-86
2021/06/23 06:42:36;;;;;;;0.20;0.20;;;;;;;;;;4896431;29;20040;-84
2021/06/23 06:45:02;;;;;;;0.15;0.15;;;;;;;;;;4896346;29;20045;-84
2021/06/23 06:47:28;;;;;;;0.10;0.10;;;;;;;;;;4896061;29;20105;-84
2021/06/23 06:49:54;;;;;;;0.10;0.10;;;;;;;;;;4896169;29;20044;-84
2021/06/23 06:52:20;;;;;;;0.10;0.10;;;;;;;;;;4896310;29;20156;-84
2021/06/23 06:54:46;;;;;;;0.10;0.10;;;;;;;;;;4896092;29;20136;-84
2021/06/23 06:57:12;;;;;;;0.10;0.10;;;;;;;;;;4897280;29;20683;-83
2021/06/23 06:59:38;;;;;;;0.20;0.20;;;;;;;;;;4896139;29;20167;-84
2021/06/23 07:02:04;;;;;;;0.10;0.10;;;;;;;;;;4895905;29;20271;-83
2021/06/23 07:04:31;;;;;;;0.30;0.30;;;;;;;;;;4895417;29;20053;-83
2021/06/23 07:06:57;;;;;;;0.10;0.10;;;;;;;;;;4897005;29;20443;-83
2021/06/23 07:09:23;;;;;;;0.10;0.10;;;;;;;;;;4895791;29;20044;-83
2021/06/23 07:11:49;;;;;;;0.15;0.15;;;;;;;;;;4880601;29;20146;-83
2021/06/23 07:14:16;;;;;;;0.10;0.10;;;;;;;;;;4896933;29;20036;-84
2021/06/23 07:16:42;;;;;;;0.10;0.10;;;;;;;;;;4896867;29;20073;-84
2021/06/23 07:19:08;;;;;;;0.20;0.20;;;;;;;;;;4895552;29;20441;-83
2021/06/23 07:21:34;;;;;;;0.10;0.10;;;;;;;;;;4895754;29;20063;-83
2021/06/23 07:24:00;;;;;;;0.20;0.20;;;;;;;;;;4897003;29;20045;-84
2021/06/23 07:26:27;;;;;;;0.22;0.22;;;;;;;;;;4895520;29;20043;-84
2021/06/23 07:28:53;;;;;;;0.10;0.10;;;;;;;;;;4895704;29;20096;-83
2021/06/23 07:31:32;;;;;;;0.10;0.10;;;;;;;;;;4896770;29;20115;-84
2021/06/23 07:34:13;;;;;;;0.10;0.10;;;;;;;;;;4895524;29;20041;-84
2021/06/23 07:37:02;;;;;;;0.20;0.20;;;;;;;;;;4895597;29;20045;-84
2021/06/23 07:39:28;;;;;;;0.10;0.10;;;;;;;;;;4895779;29;20044;-84
2021/06/23 07:41:54;;;;;;;0.10;0.10;;;;;;;;;;4896606;29;20442;-84
2021/06/23 07:44:33;;;;;;;0.20;0.20;;;;;;;;;;4896648;29;20059;-84
2021/06/23 07:47:02;;;;;;;0.20;0.20;;;;;;;;;;4895509;29;20047;-84
2021/06/23 07:49:31;;;;;;;0.10;0.10;;;;;;;;;;4880246;29;20067;-83
2021/06/23 07:52:07;;;;;;;0.20;0.20;;;;;;;;;;4895266;29;20119;-85
2021/06/23 08:08:28;;;;;;;0.20;0.20;;;;;;;;;;4896283;29;20116;-87
2021/06/23 08:11:00;;;;;;;0.10;0.10;;;;;;;;;;4866248;29;20053;-88
2021/06/23 08:13:26;;;;;;;0.17;0.17;;;;;;;;;;4880501;29;20076;-88
2021/06/23 08:15:52;;;;;;;0.17;0.17;;;;;;;;;;4896778;29;20108;-88
2021/06/23 08:18:20;;;;;;;0.10;0.10;;;;;;;;;;4898659;29;20056;-87
2021/06/23 08:20:47;;;;;;;0.20;0.20;;;;;;;;;;4899020;29;20463;-88
2021/06/23 08:23:13;;;;;;;0.20;0.20;;;;;;;;;;4898971;29;20052;-87
2021/06/23 08:25:39;;;;;;;0.20;0.20;;;;;;;;;;4900118;29;20052;-86
2021/06/23 08:28:05;;;;;;;0.10;0.10;;;;;;;;;;4898895;29;20041;-88
2021/06/23 08:30:31;;;;;;;0.10;0.10;;;;;;;;;;4898773;29;20093;-88
2021/06/23 08:32:58;;;;;;;0.10;0.10;;;;;;;;;;4898863;29;20513;-87
2021/06/23 08:35:24;;;;;;;0.10;0.10;;;;;;;;;;4898972;29;20067;-87
2021/06/23 08:37:50;;;;;;;0.10;0.10;;;;;;;;;;4883023;29;20483;-87
2021/06/23 08:40:16;;;;;;;0.10;0.10;;;;;;;;;;4883402;29;20131;-87
2021/06/23 08:42:43;;;;;;;0.10;0.10;;;;;;;;;;4899753;29;20090;-87
2021/06/23 08:45:11;;;;;;;0.10;0.10;;;;;;;;;;4883200;29;20063;-87
2021/06/23 08:47:39;;;;;;;0.10;0.10;;;;;;;;;;4898581;29;20049;-87
2021/06/23 08:50:05;;;;;;;0.13;0.13;;;;;;;;;;4898490;29;20132;-87
2021/06/23 08:52:31;;;;;;;0.20;0.20;;;;;;;;;;4882842;29;20084;-86
2021/06/23 08:54:57;;;;;;;0.10;0.10;;;;;;;;;;4899776;29;20048;-87
2021/06/23 08:57:23;;;;;;;0.10;0.10;;;;;;;;;;4882973;29;20172;-87
2021/06/23 08:59:49;;;;;;;0.10;0.10;;;;;;;;;;4882804;29;20080;-87
2021/06/23 09:02:16;;;;;;;0.10;0.10;;;;;;;;;;4898306;29;20047;-87
2021/06/23 09:04:58;;;;;;;0.10;0.10;;;;;;;;;;4898268;29;20060;-86
2021/06/23 09:07:53;;;;;;;0.10;0.10;;;;;;;;;;4898254;29;20096;-87
2021/06/23 09:10:19;;;;;;;0.10;0.10;;;;;;;;;;4895924;29;20071;-87
2021/06/23 09:13:00;;;;;;;0.10;0.10;;;;;;;;;;4898305;29;20474;-87
2021/06/23 09:15:45;;;;;;;0.10;0.10;;;;;;;;;;4898194;29;20127;-87
2021/06/23 09:18:12;;;;;;;0.10;0.10;;;;;;;;;;4897728;29;20507;-87
2021/06/23 09:20:38;;;;;;;0.20;0.20;;;;;;;;;;4897896;29;20123;-86
2021/06/23 09:23:05;;;;;;;0.17;0.17;;;;;;;;;;4897820;29;20128;-87
2021/06/23 09:25:34;;;;;;;0.20;0.20;;;;;;;;;;4882680;29;20079;-88
2021/06/23 09:28:01;;;;;;;0.10;0.10;;;;;;;;;;4882381;29;20063;-87
2021/06/23 09:30:37;;;;;;;0.10;0.10;;;;;;;;;;4882404;29;20125;-86
2021/06/23 09:33:22;;;;;;;0.10;0.10;;;;;;;;;;4882185;29;20077;-85
2021/06/23 09:35:49;;;;;;;0.10;0.10;;;;;;;;;;4898792;29;20049;-89
2021/06/23 09:38:31;;;;;;;0.10;0.10;;;;;;;;;;4882474;29;20380;-87
2021/06/23 09:40:57;;;;;;;;;;;;;;;;;;4898137;29;20060;-86
2021/06/23 09:43:23;;;;;;;0.10;0.10;;;;;;;;;;4897818;29;20358;-87
2021/06/23 09:45:53;;;;;;;0.10;0.10;;;;;;;;;;4882107;29;20366;-88
2021/06/23 09:48:19;;;;;;;0.10;0.10;;;;;;;;;;4897777;29;20044;-87
2021/06/23 09:50:45;;;;;;;0.10;0.10;;;;;;;;;;4897341;29;20071;-86
2021/06/23 09:53:17;;;;;;;0.10;0.10;;;;;;;;;;4897462;29;20425;-86
2021/06/23 09:55:48;;;;;;;0.10;0.10;;;;;;;;;;4882392;29;20113;-87
2021/06/23 09:58:14;;;;;;;0.10;0.10;;;;;;;;;;4897232;29;20047;-87
2021/06/23 10:00:57;;;;;;;0.10;0.10;;;;;;;;;;4898426;29;20045;-85
2021/06/23 10:03:23;;;;;;;;;;;;;;;;;;4898728;29;20128;-85
2021/06/23 10:05:49;;;;;;;0.10;0.10;;;;;;;;;;4898447;29;20010;-85
2021/06/23 10:08:23;;;;;;;0.10;0.10;;;;;;;;;;4897061;29;20052;-84
2021/06/23 10:10:49;;;;;;;0.10;0.10;;;;;;;;;;4897024;29;20040;-84
2021/06/23 10:13:16;;;;;;;0.10;0.10;;;;;;;;;;4896956;29;20119;-84
2021/06/23 10:15:44;;;;;;;0.20;0.20;;;;;;;;;;4896698;29;20044;-85
2021/06/23 10:18:10;;;;;;;0.20;0.20;;;;;;;;;;4897883;29;20053;-86
2021/06/23 10:20:36;;;;;;;0.20;0.20;;;;;;;;;;4898106;29;20040;-85
2021/06/23 10:23:03;;;;;;;0.10;0.10;;;;;;;;;;4896878;29;20092;-86
2021/06/23 10:25:30;;;;;;;0.10;0.10;;;;;;;;;;4896925;29;20456;-84
2021/06/23 10:27:56;;;;;;;0.20;0.20;;;;;;;;;;4896597;29;20471;-84
2021/06/23 10:30:22;;;;;;;0.30;0.30;;;;;;;;;;4896565;29;20542;-85
2021/06/23 10:32:48;;;;;;;0.10;0.10;;;;;;;;;;4896592;29;20040;-85
2021/06/23 10:35:14;;;;;;;0.10;0.10;;;;;;;;;;4896582;29;20045;-85
2021/06/23 10:37:40;;;;;;;0.20;0.20;;;;;;;;;;4880484;29;20049;-84
2021/06/23 10:40:07;;;;;;;0.10;0.10;;;;;;;;;;4897392;29;20044;-85
2021/06/23 10:42:33;;;;;;;0.10;0.10;;;;;;;;;;4896623;29;20093;-84
2021/06/23 10:44:59;;;;;;;0.20;0.20;;;;;;;;;;4896334;29;20040;-85
2021/06/23 10:47:38;;;;;;;0.10;0.10;;;;;;;;;;4897484;29;20376;-85
2021/06/23 10:50:06;;;;;;;0.10;0.10;;;;;;;;;;4896310;29;20040;-85
2021/06/23 10:52:32;;;;;;;0.20;0.20;;;;;;;;;;4897634;29;20051;-85
2021/06/23 10:55:09;;;;;;;0.10;0.10;;;;;;;;;;4896096;29;20040;-86
2021/06/23 10:57:45;;;;;;;0.10;0.10;;;;;;;;;;4896505;29;20416;-84
2021/06/23 11:00:11;;;;;;;0.15;0.15;;;;;;;;;;4896827;29;20068;-84
2021/06/23 11:02:40;;;;;;;0.20;0.20;;;;;;;;;;4897372;29;20068;-84
2021/06/23 11:05:32;;;;;;;0.10;0.10;;;;;;;;;;4883361;29;20056;-84
2021/06/23 11:07:58;;;;;;;0.10;0.10;;;;;;;;;;4880334;29;20046;-84
2021/06/23 11:10:38;;;;;;;0.10;0.10;;;;;;;;;;4897245;29;20116;-85
2021/06/23 11:13:04;;;;;;;0.10;0.10;;;;;;;;;;4881954;29;20047;-84
2021/06/23 11:15:34;;;;;;;0.10;0.10;;;;;;;;;;4895743;29;20037;-84
2021/06/23 11:18:18;;;;;;;0.10;0.10;;;;;;;;;;4895469;29;20127;-84
2021/06/23 11:20:56;;;;;;;0.10;0.10;;;;;;;;;;4896928;29;20037;-84
2021/06/23 11:23:41;;;;;;;0.20;0.20;;;;;;;;;;4896876;29;20056;-84
2021/06/23 11:26:08;;;;;;;0.10;0.10;;;;;;;;;;4895817;29;20111;-84
2021/06/23 11:28:34;;;;;;;0.10;0.10;;;;;;;;;;4895649;29;20040;-85
2021/06/23 11:31:09;;;;;;;0.20;0.20;;;;;;;;;;4880135;29;20043;-86
2021/06/23 11:33:38;;;;;;;0.20;0.20;;;;;;;;;;4881283;29;20037;-86
2021/06/23 11:36:05;;;;;;;0.20;0.20;;;;;;;;;;4895621;29;20127;-85
2021/06/23 11:38:31;;;;;;;0.10;0.10;;;;;;;;;;4879915;29;20069;-86
2021/06/23 11:40:57;;;;;;;0.10;0.10;;;;;;;;;;4879937;29;20036;-86
2021/06/23 11:43:23;;;;;;;0.10;0.10;;;;;;;;;;4895323;29;20047;-85
2021/06/23 11:45:49;;;;;;;0.30;0.30;;;;;;;;;;4895518;29;20067;-85
2021/06/23 11:48:16;;;;;;;0.10;0.10;;;;;;;;;;4878863;29;20037;-85
2021/06/23 11:50:44;;;;;;;0.10;0.10;;;;;;;;;;4876422;29;20120;-85
2021/06/23 11:53:11;;;;;;;0.10;0.10;;;;;;;;;;4876500;29;20115;-85
2021/06/23 11:55:37;;;;;;;0.10;0.10;;;;;;;;;;4877056;29;20077;-85
2021/06/23 11:58:03;;;;;;;0.10;0.10;;;;;;;;;;4910362;29;20104;-85
2021/06/23 12:00:30;;;;;;;0.10;0.10;;;;;;;;;;4910803;29;20072;-85
2021/06/23 12:02:57;;;;;;;0.10;0.10;;;;;;;;;;4896370;29;20088;-86
2021/06/23 12:05:24;;;;;;;0.10;0.10;;;;;;;;;;4910574;29;20372;-85
2021/06/23 12:07:51;;;;;;;0.20;0.20;;;;;;;;;;4910665;29;20079;-88
2021/06/23 12:10:18;;;;;;;0.20;0.20;;;;;;;;;;4910559;29;20542;-84
2021/06/23 12:12:47;;;;;;;0.10;0.10;;;;;;;;;;4910593;29;20554;-85
2021/06/23 12:15:13;;;;;;;0.20;0.20;;;;;;;;;;4894867;29;20043;-84
2021/06/23 12:17:39;;;;;;;0.10;0.10;;;;;;;;;;4896146;29;20060;-85
2021/06/23 12:20:07;;;;;;;0.20;0.20;;;;;;;;;;4910868;29;20041;-87
2021/06/23 12:22:34;;;;;;;0.22;0.22;;;;;;;;;;4910574;29;20040;-85
2021/06/23 12:25:00;;;;;;;0.10;0.10;;;;;;;;;;4894989;29;20080;-86
2021/06/23 12:27:26;;;;;;;0.10;0.10;;;;;;;;;;4910520;29;20041;-85
2021/06/23 12:29:52;;;;;;;0.10;0.10;;;;;;;;;;4910639;29;20442;-86
2021/06/23 12:32:18;;;;;;;0.10;0.10;;;;;;;;;;4895288;29;20040;-89
2021/06/23 12:34:44;;;;;;;0.10;0.10;;;;;;;;;;4894781;29;20051;-86
2021/06/23 12:37:10;;;;;;;0.10;0.10;;;;;;;;;;4910500;29;20052;-86
2021/06/23 12:39:36;;;;;;;0.10;0.10;;;;;;;;;;4895942;29;20036;-86
2021/06/23 12:42:02;;;;;;;0.20;0.20;;;;;;;;;;4910441;29;20048;-86
2021/06/23 12:44:28;;;;;;;0.10;0.10;;;;;;;;;;4910430;29;20049;-87
2021/06/23 12:46:55;;;;;;;0.10;0.10;;;;;;;;;;4910278;29;20044;-86
2021/06/23 12:49:21;;;;;;;0.20;0.20;;;;;;;;;;4910242;29;20043;-86
2021/06/23 12:51:47;;;;;;;0.10;0.10;;;;;;;;;;4894763;29;20043;-85
2021/06/23 12:54:13;;;;;;;0.10;0.10;;;;;;;;;;4910087;29;20045;-86
2021/06/23 12:56:39;;;;;;;0.20;0.20;;;;;;;;;;4910426;29;20037;-86
2021/06/23 12:59:05;;;;;;;0.10;0.10;;;;;;;;;;4910312;29;20475;-86
2021/06/23 13:01:31;;;;;;;0.20;0.20;;;;;;;;;;4911370;29;20052;-86
2021/06/23 13:03:57;;;;;;;0.20;0.20;;;;;;;;;;4913975;29;20546;-86
2021/06/23 13:06:23;;;;;;;0.10;0.10;;;;;;;;;;4899506;29;20044;-86
2021/06/23 13:08:49;;;;;;;1.20;0.30;;;;;;;;;;4913607;29;20630;-86
2021/06/23 13:11:15;;;;;;;0.10;0.10;;;;;;;;;;4913639;29;20045;-86
2021/06/23 13:13:43;;;;;;;0.20;0.20;;;;;;;;;;4897982;29;20388;-85
2021/06/23 13:16:16;;;;;;;0.20;0.20;;;;;;;;;;4899175;29;20097;-87
2021/06/23 13:18:42;;;;;;;0.20;0.20;;;;;;;;;;4870546;29;20060;-86
2021/06/23 13:21:08;;;;;;;0.10;0.10;;;;;;;;;;4881340;29;20108;-86
2021/06/23 13:23:34;;;;;;;0.10;0.10;;;;;;;;;;4882286;29;20043;-86
2021/06/23 13:26:00;;;;;;;0.30;0.20;;;;;;;;;;4898450;29;20050;-86
2021/06/23 13:28:26;;;;;;;0.20;0.20;;;;;;;;;;4899725;29;20427;-86
2021/06/23 13:30:52;;;;;;;0.10;0.10;;;;;;;;;;4897575;29;20044;-86
2021/06/23 13:33:18;;;;;;;0.20;0.20;;;;;;;;;;4897328;29;20041;-86
2021/06/23 13:35:44;;;;;;;0.13;0.13;;;;;;;;;;4882024;29;20120;-86
2021/06/23 13:38:11;;;;;;;0.13;0.13;;;;;;;;;;4897614;29;20084;-89
2021/06/23 13:40:37;;;;;;;0.45;0.45;;;;;;;;;;4896511;29;20048;-87
2021/06/23 13:43:03;;;;;;;0.13;0.13;;;;;;;;;;4897562;29;20379;-86
2021/06/23 13:45:29;;;;;;;0.10;0.10;;;;;;;;;;4897246;29;20568;-86
2021/06/23 13:47:55;;;;;;;0.20;0.20;;;;;;;;;;4897529;29;20116;-86
2021/06/23 13:50:21;;;;;;;0.20;0.20;;;;;;;;;;4897154;29;20036;-86
2021/06/23 13:52:48;;;;;;;0.10;0.10;;;;;;;;;;4881807;29;20037;-89
2021/06/23 13:55:23;;;;;;;0.20;0.20;;;;;;;;;;4881377;29;20076;-86
2021/06/23 13:57:49;;;;;;;0.17;0.17;;;;;;;;;;4897294;29;20036;-86
2021/06/23 14:00:15;;;;;;;0.10;0.10;;;;;;;;;;4897326;29;20044;-86
2021/06/23 14:02:41;;;;;;;0.20;0.20;;;;;;;;;;4881934;29;20053;-86
2021/06/23 14:05:07;;;;;;;0.10;0.10;;;;;;;;;;4881498;29;20093;-87
2021/06/23 14:07:33;;;;;;;0.20;0.20;;;;;;;;;;4897108;29;20526;-86
2021/06/23 14:10:00;;;;;;;0.20;0.20;;;;;;;;;;4896925;29;20049;-85
2021/06/23 14:12:26;;;;;;;0.20;0.20;;;;;;;;;;4898157;29;20048;-85
2021/06/23 14:14:54;;;;;;;0.20;0.20;;;;;;;;;;4896793;29;20121;-87
2021/06/23 14:17:20;;;;;;;0.10;0.10;;;;;;;;;;4897715;29;20057;-84
2021/06/23 14:19:46;;;;;;;0.20;0.20;;;;;;;;;;4898211;29;20104;-84
2021/06/23 14:22:12;;;;;;;0.20;0.20;;;;;;;;;;4898070;29;20044;-87
2021/06/23 14:24:38;;;;;;;0.20;0.20;;;;;;;;;;4896911;29;20566;-88
2021/06/23 14:27:05;;;;;;;0.30;0.30;;;;;;;;;;4881200;29;20041;-84
2021/06/23 14:29:31;;;;;;;0.10;0.10;;;;;;;;;;4881211;29;20037;-85
2021/06/23 14:31:57;;;;;;;0.20;0.20;;;;;;;;;;4896562;29;20483;-85
2021/06/23 14:34:24;;;;;;;0.10;0.10;;;;;;;;;;4897563;29;20055;-85
2021/06/23 14:36:50;;;;;;;0.10;0.10;;;;;;;;;;4898908;29;20179;-85
2021/06/23 14:39:16;;;;;;;0.10;0.10;;;;;;;;;;4897782;29;20032;-85
2021/06/23 14:41:43;;;;;;;0.10;0.10;;;;;;;;;;4899247;29;20042;-89
2021/06/23 14:44:08;;;;;;;0.10;0.10;;;;;;;;;;4866543;29;20104;-87
2021/06/23 14:46:35;;;;;;;0.13;0.13;;;;;;;;;;4896244;29;20036;-86
2021/06/23 14:49:01;;;;;;;0.10;0.10;;;;;;;;;;4897575;29;20783;-85
2021/06/23 14:51:27;;;;;;;0.20;0.20;;;;;;;;;;4896383;29;20482;-86
2021/06/23 14:53:53;;;;;;;0.10;0.10;;;;;;;;;;4880705;29;20119;-85
2021/06/23 14:56:20;;;;;;;0.20;0.20;;;;;;;;;;4896074;29;20143;-85
2021/06/23 14:58:46;;;;;;;0.20;0.20;;;;;;;;;;4897666;29;20092;-86